Flight Track Log - Related Links

Times and Time Zones

All times are in EDT time to prevent confusion due to time zone crossing. See the SKW6330 flight status page for this flight to view local times or setup timezone preferences in your user account.

Time Position Orientation Groundspeed Altitude Reporting Facility
EDT Latitude Longitude Course Direction KTS MPH feet Rate Location/Type
Tue 07:25:23 PM 33.9500 -118.4833 338° Northwest 168 193 3,000  Level Southern California TRACON
Tue 07:26:03 PM 33.9561 -118.5272 280° West 172 198 3,900 1,471 Climbing Los Angeles Center
Tue 07:27:00 PM 34.1192 -118.4859 320° Northwest  Level FlightAware Approximate
Tue 07:27:05 PM 33.9792 -118.5828 297° West 183 211 5,500  Level Los Angeles Center
Tue 07:28:00 PM 34.1792 -118.5305 331° Northwest  Level FlightAware Approximate
Tue 07:28:06 PM 34.0064 -118.6381 301° West 190 219 6,900  Level Los Angeles Center
Tue 07:29:00 PM 34.2416 -118.5667 North  Level FlightAware Approximate
Tue 07:29:08 PM 34.0694 -118.6514 350° North 213 245 7,100  Level Los Angeles Center
Tue 07:30:00 PM 34.3026 -118.5930 338° Northwest  Level FlightAware Approximate
Tue 07:30:10 PM 34.1269 -118.6625 351° North 208 239 8,300  Level Los Angeles Center
Tue 07:31:12 PM 34.1814 -118.6689 354° North 197 227 9,900 1,694 Climbing Los Angeles Center
Tue 07:32:14 PM 34.2322 -118.6708 358° North 187 215 11,800 1,306 Climbing Los Angeles Center
Tue 07:33:16 PM 34.2867 -118.6631 North 195 224 12,600 871 Climbing Los Angeles Center
Tue 07:34:18 PM 34.3422 -118.6608 North 200 230 13,600 968 Climbing Los Angeles Center
Tue 07:35:20 PM 34.3933 -118.6753 347° North 191 220 14,600 1,065 Climbing Los Angeles Center
Tue 07:36:22 PM 34.4583 -118.6881 351° North 199 229 15,800 1,113 Climbing Los Angeles Center
Tue 07:37:24 PM 34.5111 -118.7000 349° North 191 220 16,900 1,016 Climbing Los Angeles Center
Tue 07:38:26 PM 34.5650 -118.7128 349° North 197 227 17,900 871 Climbing Los Angeles Center
Tue 07:39:28 PM 34.6194 -118.7250 350° North 199 229 18,700 871 Climbing Los Angeles Center
Tue 07:40:30 PM 34.6731 -118.7386 348° North 198 228 19,700 629 Climbing Los Angeles Center
Tue 07:41:32 PM 34.7303 -118.7525 349° North 212 244 20,000 387 Climbing Los Angeles Center
Tue 07:42:34 PM 34.8089 -118.7681 351° North 240 276 20,500 823 Climbing Los Angeles Center
Tue 07:43:36 PM 34.8694 -118.7831 349° North 221 254 21,700 726 Climbing Los Angeles Center
Tue 07:44:38 PM 34.9236 -118.7942 350° North 213 245 22,000 145 Climbing Los Angeles Center
Tue 07:45:40 PM 34.9839 -118.8086 349° North 218 251 22,000  Level Los Angeles Center
Tue 07:46:41 PM 35.0569 -118.8256 349° North 223 257 22,000  Level Los Angeles Center
Tue 07:47:43 PM 35.1197 -118.8397 350° North 228 262 22,000  Level Los Angeles Center
Tue 07:48:45 PM 35.1850 -118.8542 350° North 235 270 22,000  Level Los Angeles Center
Tue 07:49:47 PM 35.2489 -118.8683 350° North 235 270 22,000  Level Los Angeles Center
Tue 07:50:49 PM 35.3136 -118.8833 349° North 236 272 22,000  Level Los Angeles Center
Tue 07:51:51 PM 35.3778 -118.8983 349° North 235 270 22,000  Level Los Angeles Center
Tue 07:52:53 PM 35.4525 -118.9156 349° North 229 264 22,000  Level Los Angeles Center
Tue 07:53:56 PM 35.5147 -118.9306 349° North 227 261 22,000  Level Los Angeles Center
Tue 07:54:58 PM 35.5775 -118.9456 349° North 230 265 22,000  Level Los Angeles Center
Tue 07:56:00 PM 35.6397 -118.9594 350° North 228 262 22,000 -202 Level Los Angeles Center
Tue 07:56:27 PM 35.6650 -118.9656 349° North 230 265 21,700 -1,079 Descending Oakland Center
Tue 07:57:29 PM 35.7444 -118.9844 349° North 238 274 20,400 -1,171 Descending Oakland Center
Tue 07:58:30 PM 35.8078 -118.9992 349° North 236 272 19,300 -1,279 Descending Oakland Center
Tue 07:59:31 PM 35.8736 -119.0150 349° North 238 274 17,800 -1,475 Descending Oakland Center
Tue 08:00:32 PM 35.9414 -119.0369 345° North 246 283 16,300 -1,475 Descending Oakland Center
Tue 08:01:33 PM 36.0089 -119.0689 339° North 256 295 14,800 -1,122 Descending Oakland Center
Tue 08:02:35 PM 36.0750 -119.1011 339° North 257 296 14,000 -439 Descending Oakland Center
Tue 08:03:36 PM 36.1356 -119.1308 338° Northwest 246 283 13,900 -98 Descending Oakland Center
Tue 08:04:37 PM 36.1936 -119.1594 338° Northwest 233 268 13,800 -590 Descending Oakland Center
Tue 08:05:38 PM 36.2578 -119.1867 341° North 243 280 12,700 -1,426 Descending Oakland Center
Tue 08:06:39 PM 36.3389 -119.2244 339° North 257 296 10,900 -1,805 Descending Oakland Center
Tue 08:07:41 PM 36.4075 -119.2572 339° North 263 303 9,000 -1,805 Descending Oakland Center
Tue 08:08:42 PM 36.4667 -119.3000 330° Northwest 252 290 7,200 -1,525 Descending Oakland Center
Tue 08:09:43 PM 36.5122 -119.3597 314° West 239 275 5,900 -1,033 Descending Oakland Center
Tue 08:10:44 PM 36.5583 -119.4164 315° West 236 272 5,100 -829 Descending Oakland Center
Tue 08:11:46 PM 36.6025 -119.4747 313° West 234 269 4,200 -976 Descending Oakland Center
Tue 08:12:47 PM 36.6497 -119.5247 320° Northwest 225 259 3,100 -984 Descending Oakland Center
Tue 08:13:48 PM 36.6936 -119.5767 317° Northwest 201 231 2,200 -689 Descending Oakland Center
Tue 08:14:49 PM 36.7253 -119.6319 306° West 188 216 1,700 -492 Descending Oakland Center
Tue 08:15:50 PM 36.7467 -119.6689 306° West 145 167 1,200 -634 Descending Oakland Center
Tue 08:16:52 PM 36.7686 -119.7083 305° West 131 151 400 -774 Descending Oakland Center

Login

Don't have an account? Register now (free) for customized features, flight alerts, and more!